Terminal Aerodrome Forecast
Issued by NWS North Platte, NE

Home | Current Version | Previous Version | Text Only | Print | Product List | Glossary Off
Versions: 1 2 3 4 5 6 7 8 9 10 11 12 13

000
FTUS43 KLBF 051100
TAFVTN
TAF
KVTN 051120Z 0512/0612 21012KT P6SM SKC
     FM051500 20011KT P6SM SKC
     FM051900 17011G18KT P6SM SKC PROB30 0602/0606 P6SM TSRA
      BKN050CB=

USA.gov is the U.S. government's official web portal to all federal, state and local government web resources and services.